sensor_id;sensor_type;location;lat;lon;timestamp;pressure;altitude;pressure_sealevel;temperature;humidity
10167;BME280;62970;53.130;8.244;2024-03-07T00:00:26;102842.94;;;2.60;75.64
10167;BME280;62970;53.130;8.244;2024-03-07T00:02:56;102846.53;;;2.63;75.71
10167;BME280;62970;53.130;8.244;2024-03-07T00:05:26;102847.53;;;2.67;76.02
10167;BME280;62970;53.130;8.244;2024-03-07T00:07:56;102848.53;;;2.70;75.73
10167;BME280;62970;53.130;8.244;2024-03-07T00:10:25;102844.34;;;2.72;76.06
10167;BME280;62970;53.130;8.244;2024-03-07T00:12:55;102844.47;;;2.75;76.06
10167;BME280;62970;53.130;8.244;2024-03-07T00:15:24;102852.31;;;2.78;76.41
10167;BME280;62970;53.130;8.244;2024-03-07T00:17:58;102855.84;;;2.80;76.33
10167;BME280;62970;53.130;8.244;2024-03-07T00:20:28;102858.53;;;2.84;76.23
10167;BME280;62970;53.130;8.244;2024-03-07T00:22:57;102861.25;;;2.87;76.54
10167;BME280;62970;53.130;8.244;2024-03-07T00:25:26;102854.44;;;2.89;76.17
10167;BME280;62970;53.130;8.244;2024-03-07T00:27:57;102855.38;;;2.89;76.60
10167;BME280;62970;53.130;8.244;2024-03-07T00:30:28;102854.53;;;2.90;76.54
10167;BME280;62970;53.130;8.244;2024-03-07T00:33:03;102851.97;;;2.90;76.42
10167;BME280;62970;53.130;8.244;2024-03-07T00:35:33;102857.19;;;2.92;76.16
10167;BME280;62970;53.130;8.244;2024-03-07T00:38:03;102855.50;;;2.92;76.27
10167;BME280;62970;53.130;8.244;2024-03-07T00:43:02;102854.63;;;2.92;76.40
10167;BME280;62970;53.130;8.244;2024-03-07T00:45:32;102858.00;;;2.91;76.49
10167;BME280;62970;53.130;8.244;2024-03-07T00:48:05;102858.81;;;2.90;76.34
10167;BME280;62970;53.130;8.244;2024-03-07T00:50:35;102846.81;;;2.90;76.69
10167;BME280;62970;53.130;8.244;2024-03-07T00:53:04;102846.72;;;2.89;76.65
10167;BME280;62970;53.130;8.244;2024-03-07T00:55:34;102840.69;;;2.88;76.77
10167;BME280;62970;53.130;8.244;2024-03-07T00:58:04;102844.84;;;2.85;76.60
10167;BME280;62970;53.130;8.244;2024-03-07T01:00:33;102839.56;;;2.81;76.30
10167;BME280;62970;53.130;8.244;2024-03-07T01:03:05;102843.72;;;2.78;76.38
10167;BME280;62970;53.130;8.244;2024-03-07T01:05:37;102847.03;;;2.75;76.30
10167;BME280;62970;53.130;8.244;2024-03-07T01:08:07;102840.13;;;2.74;76.67
10167;BME280;62970;53.130;8.244;2024-03-07T01:10:36;102838.31;;;2.72;76.42
10167;BME280;62970;53.130;8.244;2024-03-07T01:13:06;102846.91;;;2.72;76.81
10167;BME280;62970;53.130;8.244;2024-03-07T01:15:45;102842.56;;;2.71;76.79
10167;BME280;62970;53.130;8.244;2024-03-07T01:18:17;102844.22;;;2.69;76.43
10167;BME280;62970;53.130;8.244;2024-03-07T01:20:46;102840.75;;;2.69;76.72
10167;BME280;62970;53.130;8.244;2024-03-07T01:23:15;102839.00;;;2.68;76.82
10167;BME280;62970;53.130;8.244;2024-03-07T01:25:45;102834.72;;;2.68;76.89
10167;BME280;62970;53.130;8.244;2024-03-07T01:28:14;102838.13;;;2.67;76.79
10167;BME280;62970;53.130;8.244;2024-03-07T01:30:44;102833.78;;;2.66;77.08
10167;BME280;62970;53.130;8.244;2024-03-07T01:33:16;102831.13;;;2.65;77.11
10167;BME280;62970;53.130;8.244;2024-03-07T01:35:45;102836.28;;;2.65;77.14
10167;BME280;62970;53.130;8.244;2024-03-07T01:38:15;102831.88;;;2.62;77.03
10167;BME280;62970;53.130;8.244;2024-03-07T01:40:44;102824.03;;;2.59;76.88
10167;BME280;62970;53.130;8.244;2024-03-07T01:43:14;102834.28;;;2.58;76.99
10167;BME280;62970;53.130;8.244;2024-03-07T01:45:44;102830.75;;;2.56;77.06
10167;BME280;62970;53.130;8.244;2024-03-07T01:48:24;102828.06;;;2.53;77.16
10167;BME280;62970;53.130;8.244;2024-03-07T01:50:54;102829.81;;;2.54;76.97
10167;BME280;62970;53.130;8.244;2024-03-07T01:53:25;102827.09;;;2.51;77.07
10167;BME280;62970;53.130;8.244;2024-03-07T01:55:57;102820.25;;;2.51;77.42
10167;BME280;62970;53.130;8.244;2024-03-07T01:58:26;102821.91;;;2.49;77.05
10167;BME280;62970;53.130;8.244;2024-03-07T02:00:56;102813.22;;;2.47;77.28
10167;BME280;62970;53.130;8.244;2024-03-07T02:03:28;102813.16;;;2.45;77.10
10167;BME280;62970;53.130;8.244;2024-03-07T02:05:57;102810.41;;;2.41;77.19
10167;BME280;62970;53.130;8.244;2024-03-07T02:08:28;102806.63;;;2.33;76.70
10167;BME280;62970;53.130;8.244;2024-03-07T02:10:58;102807.09;;;2.24;75.94
10167;BME280;62970;53.130;8.244;2024-03-07T02:13:28;102795.50;;;2.14;75.78
10167;BME280;62970;53.130;8.244;2024-03-07T02:15:58;102795.03;;;2.04;75.50
10167;BME280;62970;53.130;8.244;2024-03-07T02:18:35;102802.31;;;1.93;75.57
10167;BME280;62970;53.130;8.244;2024-03-07T02:21:13;102793.22;;;1.82;74.96
10167;BME280;62970;53.130;8.244;2024-03-07T02:23:42;102797.09;;;1.72;75.29
10167;BME280;62970;53.130;8.244;2024-03-07T02:26:12;102802.69;;;1.64;74.88
10167;BME280;62970;53.130;8.244;2024-03-07T02:28:41;102802.34;;;1.56;75.31
10167;BME280;62970;53.130;8.244;2024-03-07T02:31:10;102809.72;;;1.48;75.38
10167;BME280;62970;53.130;8.244;2024-03-07T02:33:39;102814.59;;;1.42;75.18
10167;BME280;62970;53.130;8.244;2024-03-07T02:36:08;102810.03;;;1.37;75.84
10167;BME280;62970;53.130;8.244;2024-03-07T02:38:41;102802.03;;;1.31;75.16
10167;BME280;62970;53.130;8.244;2024-03-07T02:41:10;102807.72;;;1.24;75.04
10167;BME280;62970;53.130;8.244;2024-03-07T02:43:40;102799.66;;;1.16;75.02
10167;BME280;62970;53.130;8.244;2024-03-07T02:46:09;102802.81;;;1.10;75.04
10167;BME280;62970;53.130;8.244;2024-03-07T02:48:39;102805.91;;;1.03;75.00
10167;BME280;62970;53.130;8.244;2024-03-07T02:51:08;102814.19;;;0.98;75.26
10167;BME280;62970;53.130;8.244;2024-03-07T02:53:40;102819.84;;;0.91;75.00
10167;BME280;62970;53.130;8.244;2024-03-07T02:56:10;102813.53;;;0.84;75.20
10167;BME280;62970;53.130;8.244;2024-03-07T02:58:39;102804.78;;;0.80;75.42
10167;BME280;62970;53.130;8.244;2024-03-07T03:01:08;102804.56;;;0.76;75.57
10167;BME280;62970;53.130;8.244;2024-03-07T03:03:37;102800.91;;;0.71;75.74
10167;BME280;62970;53.130;8.244;2024-03-07T03:06:08;102808.47;;;0.68;75.69
10167;BME280;62970;53.130;8.244;2024-03-07T03:08:40;102806.53;;;0.64;75.36
10167;BME280;62970;53.130;8.244;2024-03-07T03:11:09;102804.63;;;0.60;75.64
10167;BME280;62970;53.130;8.244;2024-03-07T03:13:40;102803.69;;;0.58;76.08
10167;BME280;62970;53.130;8.244;2024-03-07T03:16:09;102799.41;;;0.58;76.49
10167;BME280;62970;53.130;8.244;2024-03-07T03:18:38;102800.38;;;0.60;77.16
10167;BME280;62970;53.130;8.244;2024-03-07T03:21:07;102803.16;;;0.65;77.83
10167;BME280;62970;53.130;8.244;2024-03-07T03:23:40;102795.69;;;0.69;77.87
10167;BME280;62970;53.130;8.244;2024-03-07T03:26:09;102804.34;;;0.71;77.83
10167;BME280;62970;53.130;8.244;2024-03-07T03:28:40;102801.84;;;0.73;77.97
10167;BME280;62970;53.130;8.244;2024-03-07T03:31:09;102810.50;;;0.75;78.27
10167;BME280;62970;53.130;8.244;2024-03-07T03:33:40;102804.66;;;0.77;78.53
10167;BME280;62970;53.130;8.244;2024-03-07T03:36:09;102804.00;;;0.81;78.80
10167;BME280;62970;53.130;8.244;2024-03-07T03:38:42;102809.28;;;0.84;78.81
10167;BME280;62970;53.130;8.244;2024-03-07T03:41:22;102804.13;;;0.84;78.76
10167;BME280;62970;53.130;8.244;2024-03-07T03:44:03;102805.09;;;0.86;79.05
10167;BME280;62970;53.130;8.244;2024-03-07T03:46:32;102807.66;;;0.86;78.55
10167;BME280;62970;53.130;8.244;2024-03-07T03:49:01;102803.25;;;0.84;78.80
10167;BME280;62970;53.130;8.244;2024-03-07T03:51:31;102816.19;;;0.85;78.45
10167;BME280;62970;53.130;8.244;2024-03-07T03:54:03;102810.88;;;0.82;78.96
10167;BME280;62970;53.130;8.244;2024-03-07T03:56:32;102807.50;;;0.83;78.70
10167;BME280;62970;53.130;8.244;2024-03-07T03:59:01;102804.88;;;0.82;79.12
10167;BME280;62970;53.130;8.244;2024-03-07T04:01:30;102815.16;;;0.82;79.13
10167;BME280;62970;53.130;8.244;2024-03-07T04:03:59;102809.94;;;0.80;78.98
10167;BME280;62970;53.130;8.244;2024-03-07T04:06:29;102807.28;;;0.79;78.62
10167;BME280;62970;53.130;8.244;2024-03-07T04:09:02;102811.47;;;0.77;79.13
10167;BME280;62970;53.130;8.244;2024-03-07T04:11:31;102801.94;;;0.74;78.72
10167;BME280;62970;53.130;8.244;2024-03-07T04:14:00;102801.06;;;0.74;78.67
10167;BME280;62970;53.130;8.244;2024-03-07T04:16:30;102801.84;;;0.73;79.03
10167;BME280;62970;53.130;8.244;2024-03-07T04:18:59;102803.53;;;0.72;79.25
10167;BME280;62970;53.130;8.244;2024-03-07T04:21:29;102815.50;;;0.72;78.71
10167;BME280;62970;53.130;8.244;2024-03-07T04:23:58;102811.19;;;0.71;79.08
10167;BME280;62970;53.130;8.244;2024-03-07T04:26:31;102809.34;;;0.68;79.08
10167;BME280;62970;53.130;8.244;2024-03-07T04:29:00;102805.00;;;0.67;79.06
10167;BME280;62970;53.130;8.244;2024-03-07T04:31:29;102806.78;;;0.68;79.43
10167;BME280;62970;53.130;8.244;2024-03-07T04:33:59;102803.41;;;0.69;79.58
10167;BME280;62970;53.130;8.244;2024-03-07T04:36:28;102801.78;;;0.71;79.66
10167;BME280;62970;53.130;8.244;2024-03-07T04:38:58;102797.53;;;0.72;79.41
10167;BME280;62970;53.130;8.244;2024-03-07T04:41:32;102800.25;;;0.75;79.90
10167;BME280;62970;53.130;8.244;2024-03-07T04:44:02;102804.56;;;0.76;79.85
10167;BME280;62970;53.130;8.244;2024-03-07T04:46:31;102804.56;;;0.76;79.46
10167;BME280;62970;53.130;8.244;2024-03-07T04:49:01;102809.84;;;0.79;79.72
10167;BME280;62970;53.130;8.244;2024-03-07T04:51:30;102807.38;;;0.80;79.91
10167;BME280;62970;53.130;8.244;2024-03-07T04:53:59;102809.28;;;0.84;80.01
10167;BME280;62970;53.130;8.244;2024-03-07T04:56:31;102797.25;;;0.83;79.49
10167;BME280;62970;53.130;8.244;2024-03-07T04:59:01;102795.47;;;0.82;79.63
10167;BME280;62970;53.130;8.244;2024-03-07T05:01:30;102809.28;;;0.84;79.76
10167;BME280;62970;53.130;8.244;2024-03-07T05:03:59;102804.22;;;0.86;80.07
10167;BME280;62970;53.130;8.244;2024-03-07T05:06:29;102800.75;;;0.85;79.75
10167;BME280;62970;53.130;8.244;2024-03-07T05:09:00;102798.19;;;0.85;79.89
10167;BME280;62970;53.130;8.244;2024-03-07T05:11:33;102800.75;;;0.85;80.15
10167;BME280;62970;53.130;8.244;2024-03-07T05:14:03;102797.38;;;0.86;80.13
10167;BME280;62970;53.130;8.244;2024-03-07T05:16:32;102804.28;;;0.87;80.07
10167;BME280;62970;53.130;8.244;2024-03-07T05:19:01;102812.06;;;0.89;80.22
10167;BME280;62970;53.130;8.244;2024-03-07T05:21:31;102814.72;;;0.91;80.14
10167;BME280;62970;53.130;8.244;2024-03-07T05:26:37;102816.47;;;0.92;80.30
10167;BME280;62970;53.130;8.244;2024-03-07T05:29:08;102813.97;;;0.93;80.70
10167;BME280;62970;53.130;8.244;2024-03-07T05:31:38;102808.09;;;0.96;80.83
10167;BME280;62970;53.130;8.244;2024-03-07T05:34:13;102805.59;;;0.97;80.63
10167;BME280;62970;53.130;8.244;2024-03-07T05:36:45;102808.09;;;0.96;80.59
10167;BME280;62970;53.130;8.244;2024-03-07T05:39:17;102812.34;;;0.95;80.29
10167;BME280;62970;53.130;8.244;2024-03-07T05:41:49;102811.63;;;0.98;80.83
10167;BME280;62970;53.130;8.244;2024-03-07T05:44:19;102813.38;;;0.99;80.48
10167;BME280;62970;53.130;8.244;2024-03-07T05:46:49;102814.34;;;1.01;80.69
10167;BME280;62970;53.130;8.244;2024-03-07T05:49:19;102811.84;;;1.02;80.58
10167;BME280;62970;53.130;8.244;2024-03-07T05:51:48;102811.03;;;1.03;80.84
10167;BME280;62970;53.130;8.244;2024-03-07T05:54:17;102803.31;;;1.03;80.73
10167;BME280;62970;53.130;8.244;2024-03-07T05:56:49;102816.25;;;1.05;80.65
10167;BME280;62970;53.130;8.244;2024-03-07T05:59:18;102813.69;;;1.05;80.96
10167;BME280;62970;53.130;8.244;2024-03-07T06:01:49;102815.44;;;1.06;80.69
10167;BME280;62970;53.130;8.244;2024-03-07T06:04:18;102818.00;;;1.06;80.73
10167;BME280;62970;53.130;8.244;2024-03-07T06:06:47;102825.94;;;1.10;81.48
10167;BME280;62970;53.130;8.244;2024-03-07T06:09:16;102823.59;;;1.15;81.45
10167;BME280;62970;53.130;8.244;2024-03-07T06:11:50;102825.56;;;1.20;82.03
10167;BME280;62970;53.130;8.244;2024-03-07T06:14:19;102821.59;;;1.27;81.92
10167;BME280;62970;53.130;8.244;2024-03-07T06:16:50;102819.22;;;1.32;82.37
10167;BME280;62970;53.130;8.244;2024-03-07T06:19:21;102828.91;;;1.37;81.98
10167;BME280;62970;53.130;8.244;2024-03-07T06:21:50;102829.19;;;1.43;82.46
10167;BME280;62970;53.130;8.244;2024-03-07T06:24:21;102827.66;;;1.47;82.23
10167;BME280;62970;53.130;8.244;2024-03-07T06:26:56;102833.00;;;1.51;82.05
10167;BME280;62970;53.130;8.244;2024-03-07T06:29:29;102835.84;;;1.58;82.16
10167;BME280;62970;53.130;8.244;2024-03-07T06:31:59;102832.47;;;1.59;81.83
10167;BME280;62970;53.130;8.244;2024-03-07T06:34:28;102840.94;;;1.56;81.84
10167;BME280;62970;53.130;8.244;2024-03-07T06:36:59;102826.25;;;1.53;81.53
10167;BME280;62970;53.130;8.244;2024-03-07T06:39:28;102833.97;;;1.53;81.29
10167;BME280;62970;53.130;8.244;2024-03-07T06:42:00;102833.97;;;1.53;81.58
10167;BME280;62970;53.130;8.244;2024-03-07T06:44:30;102829.75;;;1.56;82.03
10167;BME280;62970;53.130;8.244;2024-03-07T06:46:59;102844.47;;;1.58;82.17
10167;BME280;62970;53.130;8.244;2024-03-07T06:49:28;102840.25;;;1.60;82.10
10167;BME280;62970;53.130;8.244;2024-03-07T06:51:57;102842.09;;;1.63;81.81
10167;BME280;62970;53.130;8.244;2024-03-07T06:54:27;102839.53;;;1.63;81.67
10167;BME280;62970;53.130;8.244;2024-03-07T06:56:56;102840.47;;;1.65;82.01
10167;BME280;62970;53.130;8.244;2024-03-07T06:59:28;102839.66;;;1.66;81.94
10167;BME280;62970;53.130;8.244;2024-03-07T07:01:57;102839.72;;;1.67;82.17
10167;BME280;62970;53.130;8.244;2024-03-07T07:04:27;102842.38;;;1.69;81.63
10167;BME280;62970;53.130;8.244;2024-03-07T07:07:07;102845.00;;;1.70;82.01
10167;BME280;62970;53.130;8.244;2024-03-07T07:09:39;102846.78;;;1.71;81.80
10167;BME280;62970;53.130;8.244;2024-03-07T07:12:09;102845.16;;;1.73;82.00
10167;BME280;62970;53.130;8.244;2024-03-07T07:14:43;102845.97;;;1.72;82.12
10167;BME280;62970;53.130;8.244;2024-03-07T07:17:12;102847.72;;;1.73;81.72
10167;BME280;62970;53.130;8.244;2024-03-07T07:19:42;102848.69;;;1.75;81.68
10167;BME280;62970;53.130;8.244;2024-03-07T07:22:11;102848.81;;;1.78;82.07
10167;BME280;62970;53.130;8.244;2024-03-07T07:24:41;102833.50;;;1.81;82.20
10167;BME280;62970;53.130;8.244;2024-03-07T07:27:11;102834.59;;;1.87;81.99
10167;BME280;62970;53.130;8.244;2024-03-07T07:29:43;102832.16;;;1.90;82.62
10167;BME280;62970;53.130;8.244;2024-03-07T07:32:12;102822.88;;;1.93;82.34
10167;BME280;62970;53.130;8.244;2024-03-07T07:34:42;102828.31;;;1.99;82.44
10167;BME280;62970;53.130;8.244;2024-03-07T07:37:11;102825.88;;;2.02;82.33
10167;BME280;62970;53.130;8.244;2024-03-07T07:39:40;102820.97;;;2.08;82.87
10167;BME280;62970;53.130;8.244;2024-03-07T07:42:09;102808.38;;;2.14;83.10
10167;BME280;62970;53.130;8.244;2024-03-07T07:44:39;102815.59;;;2.22;82.99
10167;BME280;62970;53.130;8.244;2024-03-07T07:47:12;102816.72;;;2.28;82.97
10167;BME280;62970;53.130;8.244;2024-03-07T07:49:41;102802.34;;;2.33;83.15
10167;BME280;62970;53.130;8.244;2024-03-07T07:52:10;102818.88;;;2.38;83.13
10167;BME280;62970;53.130;8.244;2024-03-07T07:54:42;102813.91;;;2.43;82.99
10167;BME280;62970;53.130;8.244;2024-03-07T07:57:11;102811.59;;;2.49;82.72
10167;BME280;62970;53.130;8.244;2024-03-07T07:59:41;102816.88;;;2.52;82.59
10167;BME280;62970;53.130;8.244;2024-03-07T08:02:13;102806.63;;;2.54;82.85
10167;BME280;62970;53.130;8.244;2024-03-07T08:04:42;102819.69;;;2.58;82.94
10167;BME280;62970;53.130;8.244;2024-03-07T08:07:12;102805.31;;;2.63;82.83
10167;BME280;62970;53.130;8.244;2024-03-07T08:09:41;102810.59;;;2.66;82.74
10167;BME280;62970;53.130;8.244;2024-03-07T08:12:10;102809.03;;;2.70;83.18
10167;BME280;62970;53.130;8.244;2024-03-07T08:14:40;102805.81;;;2.75;82.79
10167;BME280;62970;53.130;8.244;2024-03-07T08:19:57;102798.50;;;2.86;82.76
10167;BME280;62970;53.130;8.244;2024-03-07T08:22:26;102802.19;;;2.91;82.87
10167;BME280;62970;53.130;8.244;2024-03-07T08:24:55;102799.72;;;2.94;82.77
10167;BME280;62970;53.130;8.244;2024-03-07T08:27:25;102797.28;;;2.97;83.03
10167;BME280;62970;53.130;8.244;2024-03-07T08:29:55;102790.53;;;3.01;83.36
10167;BME280;62970;53.130;8.244;2024-03-07T08:32:27;102796.69;;;3.04;83.32
10167;BME280;62970;53.130;8.244;2024-03-07T08:34:56;102792.72;;;3.12;83.31
10167;BME280;62970;53.130;8.244;2024-03-07T08:37:27;102790.38;;;3.19;83.48
10167;BME280;62970;53.130;8.244;2024-03-07T08:39:57;102783.88;;;3.28;83.09
10167;BME280;62970;53.130;8.244;2024-03-07T08:42:27;102777.25;;;3.35;83.24
10167;BME280;62970;53.130;8.244;2024-03-07T08:44:58;102777.47;;;3.41;83.38
10167;BME280;62970;53.130;8.244;2024-03-07T08:47:30;102776.06;;;3.49;83.11
10167;BME280;62970;53.130;8.244;2024-03-07T08:50:00;102772.13;;;3.59;83.15
10167;BME280;62970;53.130;8.244;2024-03-07T08:52:32;102764.66;;;3.66;83.48
10167;BME280;62970;53.130;8.244;2024-03-07T08:55:03;102765.75;;;3.73;83.34
10167;BME280;62970;53.130;8.244;2024-03-07T08:57:37;102764.28;;;3.80;83.17
10167;BME280;62970;53.130;8.244;2024-03-07T09:00:10;102763.59;;;3.85;83.00
10167;BME280;62970;53.130;8.244;2024-03-07T09:02:52;102760.38;;;3.91;83.08
10167;BME280;62970;53.130;8.244;2024-03-07T09:05:24;102764.84;;;3.96;82.84
10167;BME280;62970;53.130;8.244;2024-03-07T09:07:54;102765.03;;;4.01;82.96
10167;BME280;62970;53.130;8.244;2024-03-07T09:10:25;102767.72;;;4.04;83.03
10167;BME280;62970;53.130;8.244;2024-03-07T09:12:55;102765.22;;;4.07;82.72
10167;BME280;62970;53.130;8.244;2024-03-07T09:15:24;102772.22;;;4.09;82.57
10167;BME280;62970;53.130;8.244;2024-03-07T09:17:56;102761.97;;;4.13;82.81
10167;BME280;62970;53.130;8.244;2024-03-07T09:20:29;102766.38;;;4.15;82.87
10167;BME280;62970;53.130;8.244;2024-03-07T09:22:59;102766.44;;;4.17;82.81
10167;BME280;62970;53.130;8.244;2024-03-07T09:25:28;102769.13;;;4.20;82.74
10167;BME280;62970;53.130;8.244;2024-03-07T09:27:59;102769.22;;;4.23;82.80
10167;BME280;62970;53.130;8.244;2024-03-07T09:30:28;102768.53;;;4.28;83.15
10167;BME280;62970;53.130;8.244;2024-03-07T09:33:00;102767.00;;;4.33;83.31
10167;BME280;62970;53.130;8.244;2024-03-07T09:35:30;102760.28;;;4.38;83.18
10167;BME280;62970;53.130;8.244;2024-03-07T09:37:59;102759.66;;;4.46;83.13
10167;BME280;62970;53.130;8.244;2024-03-07T09:40:29;102753.91;;;4.54;82.93
10167;BME280;62970;53.130;8.244;2024-03-07T09:43:01;102762.69;;;4.59;83.08
10167;BME280;62970;53.130;8.244;2024-03-07T09:45:33;102759.50;;;4.68;82.84
10167;BME280;62970;53.130;8.244;2024-03-07T09:48:08;102749.38;;;4.74;82.75
10167;BME280;62970;53.130;8.244;2024-03-07T09:50:39;102760.81;;;4.81;82.72
10167;BME280;62970;53.130;8.244;2024-03-07T09:53:09;102759.19;;;4.84;82.37
10167;BME280;62970;53.130;8.244;2024-03-07T09:55:38;102752.47;;;4.89;82.75
10167;BME280;62970;53.130;8.244;2024-03-07T09:58:09;102748.38;;;4.96;82.20
10167;BME280;62970;53.130;8.244;2024-03-07T10:00:40;102754.50;;;4.99;82.01
10167;BME280;62970;53.130;8.244;2024-03-07T10:03:13;102749.63;;;5.09;82.17
10167;BME280;62970;53.130;8.244;2024-03-07T10:05:44;102745.53;;;5.17;82.03
10167;BME280;62970;53.130;8.244;2024-03-07T10:08:13;102751.91;;;5.28;82.31
10167;BME280;62970;53.130;8.244;2024-03-07T10:10:45;102749.66;;;5.38;82.82
10167;BME280;62970;53.130;8.244;2024-03-07T10:13:15;102752.59;;;5.51;82.20
10167;BME280;62970;53.130;8.244;2024-03-07T10:15:44;102755.50;;;5.61;82.19
10167;BME280;62970;53.130;8.244;2024-03-07T10:18:17;102751.50;;;5.73;82.53
10167;BME280;62970;53.130;8.244;2024-03-07T10:20:48;102747.53;;;5.85;82.59
10167;BME280;62970;53.130;8.244;2024-03-07T10:23:19;102758.97;;;5.93;82.28
10167;BME280;62970;53.130;8.244;2024-03-07T10:25:50;102755.59;;;5.96;81.66
10167;BME280;62970;53.130;8.244;2024-03-07T10:28:20;102747.00;;;5.98;81.56
10167;BME280;62970;53.130;8.244;2024-03-07T10:30:50;102751.31;;;5.98;80.76
10167;BME280;62970;53.130;8.244;2024-03-07T10:33:25;102759.09;;;5.98;80.85
10167;BME280;62970;53.130;8.244;2024-03-07T10:35:59;102752.19;;;5.98;80.79
10167;BME280;62970;53.130;8.244;2024-03-07T10:38:29;102759.09;;;5.98;80.80
10167;BME280;62970;53.130;8.244;2024-03-07T10:41:00;102754.72;;;5.95;80.57
10167;BME280;62970;53.130;8.244;2024-03-07T10:43:37;102751.13;;;5.90;80.42
10167;BME280;62970;53.130;8.244;2024-03-07T10:46:12;102742.47;;;5.90;80.67
10167;BME280;62970;53.130;8.244;2024-03-07T10:48:46;102750.28;;;5.91;80.53
10167;BME280;62970;53.130;8.244;2024-03-07T10:51:24;102750.38;;;5.94;81.17
10167;BME280;62970;53.130;8.244;2024-03-07T10:54:05;102752.16;;;5.97;81.09
10167;BME280;62970;53.130;8.244;2024-03-07T10:56:54;102746.09;;;5.96;81.12
10167;BME280;62970;53.130;8.244;2024-03-07T10:59:30;102745.34;;;6.00;81.02
10167;BME280;62970;53.130;8.244;2024-03-07T11:02:24;102751.31;;;5.98;80.75
10167;BME280;62970;53.130;8.244;2024-03-07T11:04:59;102746.06;;;5.95;80.10
10167;BME280;62970;53.130;8.244;2024-03-07T11:07:31;102739.97;;;5.93;79.56
10167;BME280;62970;53.130;8.244;2024-03-07T11:10:01;102736.50;;;5.92;80.44
10167;BME280;62970;53.130;8.244;2024-03-07T11:12:39;102732.25;;;5.94;80.00
10167;BME280;62970;53.130;8.244;2024-03-07T11:15:11;102734.88;;;5.96;79.76
10167;BME280;62970;53.130;8.244;2024-03-07T11:17:46;102730.56;;;5.96;79.82
10167;BME280;62970;53.130;8.244;2024-03-07T11:20:25;102735.75;;;5.96;79.91
10167;BME280;62970;53.130;8.244;2024-03-07T11:22:54;102727.94;;;5.95;79.78
10167;BME280;62970;53.130;8.244;2024-03-07T11:25:27;102727.06;;;5.94;79.82
10167;BME280;62970;53.130;8.244;2024-03-07T11:27:57;102728.00;;;5.98;80.41
10167;BME280;62970;53.130;8.244;2024-03-07T11:30:27;102732.44;;;6.02;80.25
10167;BME280;62970;53.130;8.244;2024-03-07T11:32:56;102725.50;;;6.01;80.04
10167;BME280;62970;53.130;8.244;2024-03-07T11:35:34;102717.72;;;6.01;79.22
10167;BME280;62970;53.130;8.244;2024-03-07T11:38:07;102726.31;;;5.98;79.74
10167;BME280;62970;53.130;8.244;2024-03-07T11:40:50;102725.44;;;5.98;80.15
10167;BME280;62970;53.130;8.244;2024-03-07T11:43:22;102722.88;;;5.99;79.98
10167;BME280;62970;53.130;8.244;2024-03-07T11:45:56;102722.03;;;6.00;79.83
10167;BME280;62970;53.130;8.244;2024-03-07T11:48:25;102722.06;;;6.02;79.41
10167;BME280;62970;53.130;8.244;2024-03-07T11:50:56;102721.16;;;6.00;79.67
10167;BME280;62970;53.130;8.244;2024-03-07T11:53:26;102717.69;;;5.99;79.47
10167;BME280;62970;53.130;8.244;2024-03-07T11:55:55;102714.19;;;5.97;79.20
10167;BME280;62970;53.130;8.244;2024-03-07T11:58:24;102712.44;;;5.96;79.27
10167;BME280;62970;53.130;8.244;2024-03-07T12:00:57;102725.34;;;5.95;79.57
10167;BME280;62970;53.130;8.244;2024-03-07T12:03:29;102716.66;;;5.93;79.05
10167;BME280;62970;53.130;8.244;2024-03-07T12:06:03;102721.75;;;5.90;79.09
10167;BME280;62970;53.130;8.244;2024-03-07T12:08:35;102717.38;;;5.87;79.38
10167;BME280;62970;53.130;8.244;2024-03-07T12:11:05;102714.72;;;5.84;79.34
10167;BME280;62970;53.130;8.244;2024-03-07T12:13:36;102708.59;;;5.82;79.12
10167;BME280;62970;53.130;8.244;2024-03-07T12:16:07;102707.59;;;5.77;79.15
10167;BME280;62970;53.130;8.244;2024-03-07T12:18:37;102705.91;;;5.78;79.57
10167;BME280;62970;53.130;8.244;2024-03-07T12:21:13;102704.19;;;5.78;79.32
10167;BME280;62970;53.130;8.244;2024-03-07T12:23:44;102705.97;;;5.81;79.27
10167;BME280;62970;53.130;8.244;2024-03-07T12:26:13;102706.84;;;5.81;78.67
10167;BME280;62970;53.130;8.244;2024-03-07T12:28:51;102700.84;;;5.82;79.34
10167;BME280;62970;53.130;8.244;2024-03-07T12:31:20;102700.91;;;5.85;79.09
10167;BME280;62970;53.130;8.244;2024-03-07T12:33:51;102694.94;;;5.88;79.15
10167;BME280;62970;53.130;8.244;2024-03-07T12:36:23;102696.69;;;5.89;79.48
10167;BME280;62970;53.130;8.244;2024-03-07T12:39:00;102690.66;;;5.88;79.35
10167;BME280;62970;53.130;8.244;2024-03-07T12:41:50;102694.06;;;5.87;78.93
10167;BME280;62970;53.130;8.244;2024-03-07T12:44:21;102679.41;;;5.88;79.40
10167;BME280;62970;53.130;8.244;2024-03-07T12:46:51;102680.22;;;5.85;78.80
10167;BME280;62970;53.130;8.244;2024-03-07T12:49:22;102678.47;;;5.84;78.73
10167;BME280;62970;53.130;8.244;2024-03-07T12:51:56;102674.06;;;5.82;78.49
10167;BME280;62970;53.130;8.244;2024-03-07T12:54:25;102674.84;;;5.78;78.19
10167;BME280;62970;53.130;8.244;2024-03-07T12:56:56;102666.09;;;5.74;78.35
10167;BME280;62970;53.130;8.244;2024-03-07T12:59:25;102673.88;;;5.74;78.54
10167;BME280;62970;53.130;8.244;2024-03-07T13:01:54;102673.09;;;5.77;78.66
10167;BME280;62970;53.130;8.244;2024-03-07T13:04:25;102671.31;;;5.76;78.46
10167;BME280;62970;53.130;8.244;2024-03-07T13:06:59;102676.53;;;5.77;78.67
10167;BME280;62970;53.130;8.244;2024-03-07T13:09:30;102672.28;;;5.79;79.00
10167;BME280;62970;53.130;8.244;2024-03-07T13:12:00;102671.53;;;5.83;78.83
10167;BME280;62970;53.130;8.244;2024-03-07T13:14:30;102665.47;;;5.83;78.26
10167;BME280;62970;53.130;8.244;2024-03-07T13:17:04;102662.00;;;5.82;77.94
10167;BME280;62970;53.130;8.244;2024-03-07T13:19:36;102657.66;;;5.81;77.89
10167;BME280;62970;53.130;8.244;2024-03-07T13:22:08;102657.63;;;5.80;77.56
10167;BME280;62970;53.130;8.244;2024-03-07T13:24:38;102653.25;;;5.77;77.62
10167;BME280;62970;53.130;8.244;2024-03-07T13:27:08;102648.03;;;5.76;77.64